Time;durP1;ratioP1;P1;durP2;ratioP2;P2;SDS_P1;SDS_P2;PMS_P1;PMS_P2;Temp;Humidity;BMP_temperature;BMP_pressure;BME280_temperature;BME280_humidity;BME280_pressure;Samples;Min_cycle;Max_cycle;Signal;HPM_P1;HPM_P2
2022/03/28 00:01:38;;;;;;;17.80;4.88;;;;;;;;;;5063235;28;20761;-72
2022/03/28 00:04:06;;;;;;;19.80;4.97;;;;;;;;;;5062277;28;20273;-72
2022/03/28 00:06:36;;;;;;;17.48;4.35;;;;;;;;;;5062870;28;20240;-72
2022/03/28 00:09:05;;;;;;;19.77;4.45;;;;;;;;;;5063217;28;20583;-72
2022/03/28 00:11:33;;;;;;;21.13;3.63;;;;;;;;;;5063174;28;20230;-72
2022/03/28 00:14:00;;;;;;;19.38;3.13;;;;;;;;;;5062089;28;20209;-72
2022/03/28 00:16:28;;;;;;;23.85;4.30;;;;;;;;;;5062832;28;20226;-72
2022/03/28 00:18:56;;;;;;;17.50;4.45;;;;;;;;;;5061758;28;20205;-72
2022/03/28 00:21:23;;;;;;;27.13;4.40;;;;;;;;;;5062234;28;20666;-72
2022/03/28 00:23:52;;;;;;;26.50;5.35;;;;;;;;;;5063838;28;20205;-72
2022/03/28 00:26:20;;;;;;;17.27;4.68;;;;;;;;;;5062692;28;20684;-72
2022/03/28 00:28:47;;;;;;;18.13;4.53;;;;;;;;;;5061809;28;20211;-72
2022/03/28 00:31:15;;;;;;;19.63;4.55;;;;;;;;;;5061822;28;20206;-72
2022/03/28 00:33:42;;;;;;;19.27;4.35;;;;;;;;;;5065736;28;20222;-72
2022/03/28 00:36:10;;;;;;;22.25;4.50;;;;;;;;;;5067241;28;20202;-72
2022/03/28 00:38:37;;;;;;;15.95;3.55;;;;;;;;;;5064350;28;20205;-72
2022/03/28 00:41:07;;;;;;;31.98;4.28;;;;;;;;;;5065445;28;20198;-72
2022/03/28 00:43:36;;;;;;;17.95;4.72;;;;;;;;;;5067872;28;20196;-72
2022/03/28 00:46:04;;;;;;;18.67;4.65;;;;;;;;;;5065716;28;20198;-72
2022/03/28 00:48:32;;;;;;;30.08;5.13;;;;;;;;;;5066328;28;20208;-72
2022/03/28 00:50:59;;;;;;;19.55;5.53;;;;;;;;;;5064752;28;20227;-72
2022/03/28 00:53:27;;;;;;;24.48;4.25;;;;;;;;;;5066028;28;20227;-72
2022/03/28 00:55:55;;;;;;;19.83;5.75;;;;;;;;;;5066209;28;20232;-72
2022/03/28 00:58:24;;;;;;;23.67;5.82;;;;;;;;;;5065236;28;20210;-70
2022/03/28 01:00:52;;;;;;;21.00;6.45;;;;;;;;;;5066618;28;20203;-70
2022/03/28 01:03:19;;;;;;;23.92;5.55;;;;;;;;;;5065073;28;20217;-70
2022/03/28 01:05:46;;;;;;;18.95;4.65;;;;;;;;;;5065980;28;20264;-72
2022/03/28 01:08:15;;;;;;;25.90;5.00;;;;;;;;;;5066793;28;20196;-71
2022/03/28 01:10:43;;;;;;;20.88;4.95;;;;;;;;;;5065009;28;20200;-72
2022/03/28 01:13:11;;;;;;;18.92;5.30;;;;;;;;;;5065852;28;20231;-72
2022/03/28 01:15:40;;;;;;;16.55;4.32;;;;;;;;;;5066424;28;20218;-72
2022/03/28 01:18:08;;;;;;;21.70;4.95;;;;;;;;;;5064848;28;20700;-71
2022/03/28 01:20:36;;;;;;;20.67;3.92;;;;;;;;;;5064718;28;20200;-71
2022/03/28 01:23:05;;;;;;;15.95;3.90;;;;;;;;;;5067052;28;20203;-71
2022/03/28 01:25:33;;;;;;;17.13;4.10;;;;;;;;;;5064736;28;20199;-71
2022/03/28 01:28:01;;;;;;;27.55;4.28;;;;;;;;;;5063770;28;20297;-72
2022/03/28 01:30:29;;;;;;;22.17;5.95;;;;;;;;;;5067892;28;20632;-72
2022/03/28 01:32:58;;;;;;;19.13;4.90;;;;;;;;;;5065270;28;20226;-72
2022/03/28 01:35:26;;;;;;;18.33;5.13;;;;;;;;;;5063202;28;20576;-72
2022/03/28 01:37:54;;;;;;;22.25;5.05;;;;;;;;;;5066022;28;20202;-72
2022/03/28 01:40:22;;;;;;;20.42;4.78;;;;;;;;;;5064721;28;20209;-71
2022/03/28 01:42:50;;;;;;;19.15;5.10;;;;;;;;;;5063615;28;20212;-72
2022/03/28 01:45:18;;;;;;;22.30;4.93;;;;;;;;;;5064741;28;20203;-72
2022/03/28 01:47:46;;;;;;;18.95;5.75;;;;;;;;;;5064344;28;20252;-72
2022/03/28 01:50:14;;;;;;;22.02;5.45;;;;;;;;;;5067389;28;20199;-72
2022/03/28 01:52:42;;;;;;;22.33;6.13;;;;;;;;;;5065049;28;20217;-72
2022/03/28 01:55:10;;;;;;;19.33;4.43;;;;;;;;;;5063238;28;20210;-72
2022/03/28 01:57:39;;;;;;;22.23;6.22;;;;;;;;;;5064897;28;20682;-72
2022/03/28 02:00:07;;;;;;;22.65;5.20;;;;;;;;;;5064729;28;20210;-72
2022/03/28 02:02:35;;;;;;;20.92;5.38;;;;;;;;;;5065035;28;20203;-72
2022/03/28 02:05:02;;;;;;;22.10;6.70;;;;;;;;;;5065213;28;20210;-71
2022/03/28 02:07:30;;;;;;;18.08;4.50;;;;;;;;;;5062150;28;20209;-72
2022/03/28 02:09:57;;;;;;;19.95;6.25;;;;;;;;;;5063751;28;20276;-72
2022/03/28 02:12:24;;;;;;;21.38;5.47;;;;;;;;;;5066326;28;20741;-71
2022/03/28 02:14:53;;;;;;;20.88;4.78;;;;;;;;;;5066887;28;20658;-70
2022/03/28 02:17:21;;;;;;;18.70;5.13;;;;;;;;;;5063281;28;20225;-70
2022/03/28 02:19:48;;;;;;;19.15;5.20;;;;;;;;;;5064517;28;20208;-69
2022/03/28 02:22:16;;;;;;;18.00;4.10;;;;;;;;;;5064589;28;20201;-70
2022/03/28 02:24:44;;;;;;;18.60;4.93;;;;;;;;;;5063988;28;20240;-70
2022/03/28 02:27:12;;;;;;;23.73;5.72;;;;;;;;;;5063643;28;20197;-70
2022/03/28 02:29:39;;;;;;;17.85;4.70;;;;;;;;;;5063826;28;20204;-70
2022/03/28 02:32:09;;;;;;;24.40;6.72;;;;;;;;;;5062402;28;20225;-69
2022/03/28 02:34:37;;;;;;;18.95;5.10;;;;;;;;;;5066872;28;20198;-71
2022/03/28 02:37:06;;;;;;;19.92;5.68;;;;;;;;;;5063522;28;20200;-70
2022/03/28 02:39:33;;;;;;;20.23;4.75;;;;;;;;;;5062291;28;20201;-69
2022/03/28 02:42:01;;;;;;;19.30;4.75;;;;;;;;;;5065883;28;20277;-69
2022/03/28 02:44:28;;;;;;;15.95;3.65;;;;;;;;;;5064038;28;20731;-69
2022/03/28 02:46:56;;;;;;;17.80;4.75;;;;;;;;;;5062394;28;20196;-69
2022/03/28 02:49:25;;;;;;;20.45;5.78;;;;;;;;;;5063612;28;20198;-69
2022/03/28 02:51:52;;;;;;;28.35;5.40;;;;;;;;;;5061823;28;20208;-69
2022/03/28 02:54:20;;;;;;;14.43;1.92;;;;;;;;;;5063539;28;20221;-71
2022/03/28 02:56:48;;;;;;;38.22;4.80;;;;;;;;;;5062848;28;20288;-70
2022/03/28 02:59:16;;;;;;;19.83;4.47;;;;;;;;;;5065292;28;20204;-70
2022/03/28 03:01:45;;;;;;;20.80;5.40;;;;;;;;;;5062648;28;20223;-71
2022/03/28 03:04:12;;;;;;;19.08;3.40;;;;;;;;;;5064107;28;20733;-70
2022/03/28 03:06:41;;;;;;;19.98;4.00;;;;;;;;;;5064491;28;20229;-69
2022/03/28 03:09:08;;;;;;;23.08;4.50;;;;;;;;;;5063449;28;20200;-69
2022/03/28 03:11:36;;;;;;;21.95;4.55;;;;;;;;;;5064318;28;20736;-70
2022/03/28 03:14:05;;;;;;;19.27;3.33;;;;;;;;;;5063238;28;20231;-70
2022/03/28 03:16:33;;;;;;;22.50;3.95;;;;;;;;;;5063872;28;20221;-69
2022/03/28 03:19:00;;;;;;;19.13;4.30;;;;;;;;;;5063021;28;20232;-70
2022/03/28 03:21:27;;;;;;;32.65;4.90;;;;;;;;;;5063734;28;20194;-70
2022/03/28 03:23:56;;;;;;;20.17;5.28;;;;;;;;;;5064210;28;20204;-70
2022/03/28 03:26:23;;;;;;;18.95;5.35;;;;;;;;;;5065135;28;20192;-69
2022/03/28 03:28:54;;;;;;;21.10;4.95;;;;;;;;;;5063234;28;20204;-70
2022/03/28 03:31:21;;;;;;;20.10;3.85;;;;;;;;;;5061570;28;20201;-69
2022/03/28 03:33:49;;;;;;;26.67;5.00;;;;;;;;;;5062831;28;20702;-69
2022/03/28 03:36:16;;;;;;;17.02;4.18;;;;;;;;;;5062982;28;20222;-71
2022/03/28 03:38:44;;;;;;;24.35;4.80;;;;;;;;;;5064888;28;20196;-70
2022/03/28 03:41:13;;;;;;;14.32;2.95;;;;;;;;;;5063047;28;20204;-70
2022/03/28 03:43:41;;;;;;;18.70;3.45;;;;;;;;;;5061703;28;20205;-70
2022/03/28 03:46:09;;;;;;;19.65;5.93;;;;;;;;;;5065512;28;20222;-69
2022/03/28 03:48:36;;;;;;;28.25;4.57;;;;;;;;;;5063684;28;20306;-69
2022/03/28 03:51:04;;;;;;;20.08;5.65;;;;;;;;;;5061598;28;20194;-70
2022/03/28 03:53:31;;;;;;;23.30;5.72;;;;;;;;;;5061653;28;20299;-71
2022/03/28 03:55:59;;;;;;;21.15;5.60;;;;;;;;;;5063403;28;20197;-70
2022/03/28 04:16:38;;;;;;;32.72;6.43;;;;;;;;;;5155021;27;20609;-71
2022/03/28 04:19:05;;;;;;;28.70;6.18;;;;;;;;;;5150694;27;20201;-71
2022/03/28 04:21:33;;;;;;;17.90;3.95;;;;;;;;;;5150454;27;20206;-70
2022/03/28 04:24:00;;;;;;;21.10;5.97;;;;;;;;;;5150364;27;20692;-69
2022/03/28 04:26:28;;;;;;;25.27;7.97;;;;;;;;;;5143487;27;20198;-70
2022/03/28 04:28:55;;;;;;;29.73;7.55;;;;;;;;;;5150335;27;20202;-70
2022/03/28 04:31:22;;;;;;;29.00;7.60;;;;;;;;;;5150382;27;20213;-70
2022/03/28 04:33:52;;;;;;;33.80;6.60;;;;;;;;;;5150347;27;20209;-69
2022/03/28 04:36:21;;;;;;;23.10;6.82;;;;;;;;;;5150044;27;20258;-69
2022/03/28 04:38:49;;;;;;;22.95;5.43;;;;;;;;;;5150065;27;20206;-69
2022/03/28 04:41:16;;;;;;;17.23;4.43;;;;;;;;;;5150009;27;20218;-71
2022/03/28 04:43:43;;;;;;;27.48;5.82;;;;;;;;;;5150000;27;20217;-71
2022/03/28 04:46:11;;;;;;;19.90;5.00;;;;;;;;;;5149837;27;20586;-71
2022/03/28 04:48:38;;;;;;;26.95;5.07;;;;;;;;;;5150138;27;20611;-71
2022/03/28 04:51:08;;;;;;;19.30;4.68;;;;;;;;;;5149955;27;20198;-71
2022/03/28 04:53:36;;;;;;;18.00;4.32;;;;;;;;;;5150123;27;20263;-70
2022/03/28 04:56:03;;;;;;;20.15;5.13;;;;;;;;;;5149989;27;20214;-71
2022/03/28 04:58:30;;;;;;;18.40;5.43;;;;;;;;;;5149852;27;20200;-72
2022/03/28 05:00:58;;;;;;;32.90;5.20;;;;;;;;;;5149695;27;20205;-72
2022/03/28 05:03:25;;;;;;;19.27;5.55;;;;;;;;;;5149494;27;20202;-71
2022/03/28 05:05:53;;;;;;;24.02;4.82;;;;;;;;;;5166460;27;20249;-71
2022/03/28 05:08:22;;;;;;;20.63;5.82;;;;;;;;;;5170316;27;20213;-71
2022/03/28 05:10:50;;;;;;;16.77;4.55;;;;;;;;;;5163666;27;20258;-71
2022/03/28 05:13:19;;;;;;;18.48;3.90;;;;;;;;;;5170423;27;20212;-71
2022/03/28 05:15:46;;;;;;;21.00;5.97;;;;;;;;;;5166399;27;20233;-71
2022/03/28 05:18:15;;;;;;;25.70;5.65;;;;;;;;;;5156161;27;20720;-71
2022/03/28 05:20:42;;;;;;;18.10;4.88;;;;;;;;;;5156563;27;20202;-71
2022/03/28 05:23:10;;;;;;;19.52;5.63;;;;;;;;;;5156484;27;20211;-71
2022/03/28 05:25:39;;;;;;;27.03;5.27;;;;;;;;;;5156268;27;20228;-71
2022/03/28 05:28:07;;;;;;;22.00;5.73;;;;;;;;;;5155841;27;20451;-71
2022/03/28 05:30:34;;;;;;;23.70;5.50;;;;;;;;;;5156053;27;20443;-70
2022/03/28 05:33:02;;;;;;;18.37;5.13;;;;;;;;;;5156354;27;20455;-72
2022/03/28 05:35:30;;;;;;;20.20;5.07;;;;;;;;;;5156132;27;20446;-71
2022/03/28 05:49:38;;;;;;;20.00;5.70;;;;;;;;;;5134159;27;20963;-71
2022/03/28 05:52:07;;;;;;;21.47;5.13;;;;;;;;;;5129889;28;20460;-72
2022/03/28 05:54:34;;;;;;;22.53;5.57;;;;;;;;;;5129747;28;20932;-71
2022/03/28 05:57:02;;;;;;;23.53;5.60;;;;;;;;;;5129697;28;20482;-71
2022/03/28 05:59:30;;;;;;;20.10;5.53;;;;;;;;;;5130001;28;20456;-71
2022/03/28 06:01:57;;;;;;;28.77;6.30;;;;;;;;;;5122650;28;20463;-71
2022/03/28 06:04:24;;;;;;;15.00;3.30;;;;;;;;;;5129764;28;20459;-73
2022/03/28 06:06:54;;;;;;;16.10;4.20;;;;;;;;;;5129628;28;20444;-73
2022/03/28 06:09:21;;;;;;;27.70;5.73;;;;;;;;;;5129263;28;20443;-73
2022/03/28 06:11:49;;;;;;;18.77;5.80;;;;;;;;;;5129476;28;20894;-71
2022/03/28 06:14:16;;;;;;;18.00;4.80;;;;;;;;;;5129573;28;20448;-71
2022/03/28 06:16:44;;;;;;;23.37;4.97;;;;;;;;;;5129552;28;20449;-71
2022/03/28 06:19:11;;;;;;;20.50;6.27;;;;;;;;;;5129220;28;20442;-71
2022/03/28 06:21:38;;;;;;;17.90;5.67;;;;;;;;;;5129420;28;20446;-71
2022/03/28 06:24:09;;;;;;;19.77;6.53;;;;;;;;;;5122387;28;20969;-71
2022/03/28 06:26:36;;;;;;;27.90;5.20;;;;;;;;;;5129343;28;20530;-71
2022/03/28 06:29:04;;;;;;;21.93;5.43;;;;;;;;;;5128933;28;21023;-71
2022/03/28 06:31:31;;;;;;;18.70;5.37;;;;;;;;;;5129241;27;20451;-71
2022/03/28 06:34:02;;;;;;;20.13;5.70;;;;;;;;;;5129056;28;20457;-71
2022/03/28 06:36:30;;;;;;;18.40;6.00;;;;;;;;;;5128925;28;20464;-71
2022/03/28 06:38:57;;;;;;;23.70;6.57;;;;;;;;;;5128573;28;20465;-71
2022/03/28 06:41:27;;;;;;;17.87;5.47;;;;;;;;;;5128507;28;20445;-71
2022/03/28 06:43:54;;;;;;;24.80;6.50;;;;;;;;;;5128740;28;20451;-71
2022/03/28 06:46:22;;;;;;;17.60;5.57;;;;;;;;;;5128688;28;20847;-71
2022/03/28 06:48:52;;;;;;;21.87;6.30;;;;;;;;;;5097889;28;20535;-71
2022/03/28 06:51:19;;;;;;;26.63;7.20;;;;;;;;;;5095155;28;20438;-71
2022/03/28 06:53:48;;;;;;;19.60;5.70;;;;;;;;;;5099828;28;20462;-71
2022/03/28 06:56:15;;;;;;;21.40;6.07;;;;;;;;;;5114668;28;20534;-71
2022/03/28 06:58:45;;;;;;;21.93;6.90;;;;;;;;;;5114267;28;20465;-71
2022/03/28 07:01:13;;;;;;;30.03;8.33;;;;;;;;;;5114039;28;20460;-71
2022/03/28 07:03:40;;;;;;;29.43;7.93;;;;;;;;;;5114356;28;20926;-71
2022/03/28 07:06:08;;;;;;;23.60;7.67;;;;;;;;;;5114261;28;20446;-71
2022/03/28 07:08:36;;;;;;;20.93;7.33;;;;;;;;;;5114113;28;21096;-71
2022/03/28 07:11:03;;;;;;;22.90;7.37;;;;;;;;;;5114525;28;20437;-71
2022/03/28 07:13:30;;;;;;;23.43;7.57;;;;;;;;;;5114305;28;20870;-71
2022/03/28 07:16:00;;;;;;;25.70;7.13;;;;;;;;;;5114103;28;20826;-71
2022/03/28 07:18:28;;;;;;;24.20;6.70;;;;;;;;;;5114157;28;20463;-71
2022/03/28 07:20:55;;;;;;;23.23;7.80;;;;;;;;;;5114031;28;20453;-71
2022/03/28 07:23:22;;;;;;;23.53;7.03;;;;;;;;;;5113821;28;20441;-71
2022/03/28 07:25:50;;;;;;;23.00;6.30;;;;;;;;;;5098381;28;20462;-71
2022/03/28 07:28:18;;;;;;;20.00;6.27;;;;;;;;;;5094481;28;20488;-71
2022/03/28 07:30:46;;;;;;;19.80;6.27;;;;;;;;;;5094348;28;20445;-71
2022/03/28 07:33:16;;;;;;;23.33;7.53;;;;;;;;;;5094257;28;20447;-71
2022/03/28 07:35:44;;;;;;;21.83;6.40;;;;;;;;;;5087284;28;20462;-71
2022/03/28 07:38:11;;;;;;;21.83;6.60;;;;;;;;;;5094069;28;21015;-71
2022/03/28 07:40:40;;;;;;;19.60;6.90;;;;;;;;;;5094142;28;20961;-71
2022/03/28 07:43:07;;;;;;;21.47;6.80;;;;;;;;;;5093812;28;20448;-71
2022/03/28 07:45:36;;;;;;;20.90;6.90;;;;;;;;;;5094393;28;20533;-71
2022/03/28 07:48:03;;;;;;;17.77;5.87;;;;;;;;;;5093663;28;20910;-71
2022/03/28 07:50:34;;;;;;;23.90;6.47;;;;;;;;;;5094111;28;20472;-71
2022/03/28 07:53:01;;;;;;;25.60;8.47;;;;;;;;;;5093910;28;20458;-72
2022/03/28 07:55:29;;;;;;;19.00;6.90;;;;;;;;;;5093816;28;20526;-71
2022/03/28 07:57:59;;;;;;;27.47;7.67;;;;;;;;;;5093986;28;20525;-71
2022/03/28 08:00:28;;;;;;;21.57;6.97;;;;;;;;;;5112610;28;20452;-71
2022/03/28 08:02:56;;;;;;;20.53;7.57;;;;;;;;;;5112898;28;20964;-71
2022/03/28 08:05:23;;;;;;;19.40;6.83;;;;;;;;;;5112871;28;20456;-71
2022/03/28 08:07:53;;;;;;;20.07;7.23;;;;;;;;;;5113182;28;20484;-71
2022/03/28 08:10:21;;;;;;;23.57;7.83;;;;;;;;;;5113036;28;20469;-71
2022/03/28 08:12:48;;;;;;;24.23;7.83;;;;;;;;;;5113307;28;20454;-71
2022/03/28 08:15:16;;;;;;;27.43;8.70;;;;;;;;;;5112815;28;20455;-71
2022/03/28 08:17:44;;;;;;;21.83;7.80;;;;;;;;;;5113013;28;20472;-71
2022/03/28 08:20:12;;;;;;;21.60;7.47;;;;;;;;;;5112987;28;20452;-71
2022/03/28 08:22:41;;;;;;;25.23;8.23;;;;;;;;;;5086646;28;20463;-71
2022/03/28 08:25:10;;;;;;;24.30;7.20;;;;;;;;;;5093089;28;20456;-71
2022/03/28 08:27:38;;;;;;;20.83;7.00;;;;;;;;;;5093140;28;20457;-71
2022/03/28 08:30:06;;;;;;;20.50;7.30;;;;;;;;;;5093446;28;20461;-71
2022/03/28 08:32:34;;;;;;;20.00;5.90;;;;;;;;;;5093068;28;20971;-71
2022/03/28 08:35:02;;;;;;;20.33;6.90;;;;;;;;;;5093072;28;20515;-71
2022/03/28 08:37:31;;;;;;;26.00;7.30;;;;;;;;;;5092613;28;20479;-71
2022/03/28 08:39:59;;;;;;;24.33;6.97;;;;;;;;;;5093180;28;20533;-71
2022/03/28 08:42:28;;;;;;;25.87;7.57;;;;;;;;;;5092966;28;20442;-71
2022/03/28 08:44:56;;;;;;;26.23;7.33;;;;;;;;;;5092793;28;20453;-71
2022/03/28 08:47:24;;;;;;;22.30;6.90;;;;;;;;;;5085809;28;20485;-71
2022/03/28 08:49:52;;;;;;;19.93;6.33;;;;;;;;;;5092695;28;20495;-71
2022/03/28 08:52:20;;;;;;;24.43;6.30;;;;;;;;;;5093112;28;20463;-71
2022/03/28 08:54:49;;;;;;;21.50;6.83;;;;;;;;;;5092866;28;20503;-71
2022/03/28 08:57:17;;;;;;;25.70;7.50;;;;;;;;;;5092651;28;20453;-71
2022/03/28 08:59:47;;;;;;;26.53;7.33;;;;;;;;;;5092764;28;20830;-71
2022/03/28 09:02:30;;;;;;;26.30;7.10;;;;;;;;;;5092551;28;20533;-71
2022/03/28 09:04:57;;;;;;;25.97;6.93;;;;;;;;;;5092846;28;20438;-71
2022/03/28 09:07:28;;;;;;;21.60;7.17;;;;;;;;;;5092275;28;20461;-71
2022/03/28 09:09:59;;;;;;;25.90;7.10;;;;;;;;;;5092702;28;20489;-71
2022/03/28 09:12:26;;;;;;;29.10;7.10;;;;;;;;;;5092244;28;20442;-71
2022/03/28 09:15:02;;;;;;;23.93;7.90;;;;;;;;;;5092267;28;20456;-71
2022/03/28 09:17:30;;;;;;;21.43;7.10;;;;;;;;;;5092690;28;20452;-71
2022/03/28 09:19:59;;;;;;;20.37;6.40;;;;;;;;;;5092664;28;20458;-71
2022/03/28 09:22:28;;;;;;;26.80;7.43;;;;;;;;;;5092219;28;20454;-71
2022/03/28 09:24:57;;;;;;;27.20;6.90;;;;;;;;;;5092431;28;20867;-71
2022/03/28 09:27:25;;;;;;;18.73;6.93;;;;;;;;;;5091979;28;20452;-71
2022/03/28 09:29:57;;;;;;;21.23;6.60;;;;;;;;;;5092128;28;20481;-71
2022/03/28 09:32:27;;;;;;;21.60;6.87;;;;;;;;;;5092265;28;20446;-71
2022/03/28 09:35:12;;;;;;;20.20;6.60;;;;;;;;;;5092359;28;20489;-71
2022/03/28 09:37:49;;;;;;;21.10;6.33;;;;;;;;;;5091991;28;20466;-71
2022/03/28 09:40:35;;;;;;;24.27;8.20;;;;;;;;;;5085381;28;20454;-71
2022/03/28 09:43:16;;;;;;;20.10;7.20;;;;;;;;;;5092103;28;20534;-71
2022/03/28 09:45:47;;;;;;;20.23;7.30;;;;;;;;;;5092310;28;20527;-71
2022/03/28 09:48:19;;;;;;;20.80;7.20;;;;;;;;;;5091737;28;20504;-71
2022/03/28 09:50:47;;;;;;;25.23;7.93;;;;;;;;;;5092237;28;20877;-71
2022/03/28 09:53:22;;;;;;;25.90;8.37;;;;;;;;;;5092007;28;20447;-71
2022/03/28 09:55:54;;;;;;;25.20;7.43;;;;;;;;;;5092077;28;20537;-71
2022/03/28 09:58:35;;;;;;;21.73;7.53;;;;;;;;;;5092086;28;20541;-71
2022/03/28 10:01:03;;;;;;;23.03;6.87;;;;;;;;;;5091909;28;20974;-71
2022/03/28 10:03:33;;;;;;;22.13;7.80;;;;;;;;;;5091889;28;20974;-71
2022/03/28 10:06:01;;;;;;;23.47;8.33;;;;;;;;;;5092014;28;20486;-71
2022/03/28 10:08:29;;;;;;;35.23;9.70;;;;;;;;;;5091393;28;20834;-71
2022/03/28 10:10:57;;;;;;;28.40;9.10;;;;;;;;;;5084182;28;20450;-71
2022/03/28 10:13:25;;;;;;;22.83;8.03;;;;;;;;;;5091828;28;20448;-71
2022/03/28 10:15:53;;;;;;;32.90;8.03;;;;;;;;;;5092068;28;20447;-71
2022/03/28 10:18:20;;;;;;;24.57;8.47;;;;;;;;;;5092024;28;20439;-71
2022/03/28 10:20:54;;;;;;;24.03;8.30;;;;;;;;;;5092036;28;21047;-71
2022/03/28 10:23:24;;;;;;;35.43;10.20;;;;;;;;;;5091605;28;20987;-71
2022/03/28 10:25:53;;;;;;;26.03;8.33;;;;;;;;;;5095183;28;20788;-71
2022/03/28 10:28:21;;;;;;;25.90;9.23;;;;;;;;;;5095958;28;20538;-71
2022/03/28 10:30:49;;;;;;;28.10;9.60;;;;;;;;;;5095587;28;20509;-71
2022/03/28 10:33:18;;;;;;;33.40;12.10;;;;;;;;;;5095539;28;20860;-70
2022/03/28 10:36:00;;;;;;;32.60;11.30;;;;;;;;;;5095352;28;20442;-71
2022/03/28 10:38:29;;;;;;;26.03;10.80;;;;;;;;;;5095349;28;20997;-71
2022/03/28 10:40:57;;;;;;;29.20;11.20;;;;;;;;;;5095498;28;20453;-71
2022/03/28 10:43:26;;;;;;;26.53;9.70;;;;;;;;;;5095152;28;20438;-70
2022/03/28 10:45:56;;;;;;;30.30;8.93;;;;;;;;;;5088448;28;20515;-71
2022/03/28 10:48:37;;;;;;;22.83;8.80;;;;;;;;;;5095202;28;20485;-71
2022/03/28 10:51:07;;;;;;;24.67;8.73;;;;;;;;;;5095118;28;20508;-71
2022/03/28 10:53:40;;;;;;;27.00;8.67;;;;;;;;;;5114980;28;20449;-71
2022/03/28 10:56:08;;;;;;;24.63;9.57;;;;;;;;;;5115170;27;20445;-71
2022/03/28 10:58:38;;;;;;;32.70;9.57;;;;;;;;;;5114491;28;20468;-71
2022/03/28 11:01:25;;;;;;;23.90;10.20;;;;;;;;;;5114020;28;20510;-70
2022/03/28 11:03:54;;;;;;;22.90;8.10;;;;;;;;;;5114860;28;20824;-71
2022/03/28 11:06:43;;;;;;;23.33;8.90;;;;;;;;;;5087667;28;20450;-71
2022/03/28 11:09:12;;;;;;;25.07;10.40;;;;;;;;;;5094466;28;20486;-71
2022/03/28 11:11:56;;;;;;;24.47;9.40;;;;;;;;;;5094648;28;20456;-70
2022/03/28 11:14:39;;;;;;;30.70;10.10;;;;;;;;;;5094805;28;20849;-71
2022/03/28 11:17:14;;;;;;;34.97;11.67;;;;;;;;;;5094566;28;20453;-71
2022/03/28 11:19:52;;;;;;;28.17;9.70;;;;;;;;;;5094607;28;20469;-71
2022/03/28 11:22:38;;;;;;;23.97;9.43;;;;;;;;;;5094911;28;20442;-71
2022/03/28 11:25:07;;;;;;;26.83;9.23;;;;;;;;;;5094323;28;20465;-70
2022/03/28 11:27:37;;;;;;;25.57;10.57;;;;;;;;;;5094500;28;20450;-71
2022/03/28 11:30:10;;;;;;;30.67;11.50;;;;;;;;;;5094494;28;20599;-71
2022/03/28 11:32:38;;;;;;;28.13;11.57;;;;;;;;;;5094682;28;20444;-71
2022/03/28 11:35:09;;;;;;;33.53;12.50;;;;;;;;;;5094192;28;20530;-71
2022/03/28 11:37:38;;;;;;;28.77;10.43;;;;;;;;;;5094466;28;20545;-71
2022/03/28 11:40:08;;;;;;;27.60;12.63;;;;;;;;;;5094131;28;20480;-71
2022/03/28 11:42:36;;;;;;;28.23;11.33;;;;;;;;;;5093982;28;20507;-72
2022/03/28 11:45:05;;;;;;;35.90;13.13;;;;;;;;;;5094130;28;20448;-71
2022/03/28 11:47:32;;;;;;;27.97;11.57;;;;;;;;;;5093801;28;20482;-71
2022/03/28 11:50:03;;;;;;;26.40;11.30;;;;;;;;;;5093927;28;21031;-71
2022/03/28 11:52:31;;;;;;;26.97;10.77;;;;;;;;;;5088182;28;20442;-72
2022/03/28 11:55:00;;;;;;;32.17;11.87;;;;;;;;;;5086859;28;20445;-71
2022/03/28 12:00:18;;;;;;;28.33;11.50;;;;;;;;;;5107618;28;20443;-71
2022/03/28 12:02:53;;;;;;;28.53;10.00;;;;;;;;;;5087488;28;20814;-71
2022/03/28 12:05:30;;;;;;;35.47;12.60;;;;;;;;;;5093436;28;20997;-71
2022/03/28 12:07:59;;;;;;;27.17;10.50;;;;;;;;;;5094149;28;20456;-71
2022/03/28 12:10:29;;;;;;;26.40;10.70;;;;;;;;;;5094044;28;20501;-71
2022/03/28 12:12:58;;;;;;;25.87;11.30;;;;;;;;;;5093694;28;20452;-71
2022/03/28 12:15:31;;;;;;;36.37;11.93;;;;;;;;;;5093264;28;20458;-71
2022/03/28 12:17:59;;;;;;;33.60;10.87;;;;;;;;;;5093407;28;20443;-71
2022/03/28 12:20:27;;;;;;;40.77;12.23;;;;;;;;;;5093689;28;20440;-71
2022/03/28 12:22:55;;;;;;;28.43;10.63;;;;;;;;;;5093562;28;20449;-71
2022/03/28 12:25:31;;;;;;;24.87;9.90;;;;;;;;;;5093155;28;20839;-72
2022/03/28 12:28:02;;;;;;;43.77;12.40;;;;;;;;;;5093473;28;20472;-72
2022/03/28 12:30:31;;;;;;;28.50;11.43;;;;;;;;;;5093181;28;20572;-71
2022/03/28 12:32:58;;;;;;;31.53;10.17;;;;;;;;;;5093071;28;20983;-72
2022/03/28 12:35:25;;;;;;;25.37;10.00;;;;;;;;;;5092864;28;20450;-71
2022/03/28 12:38:01;;;;;;;30.97;10.17;;;;;;;;;;5093132;28;20523;-71
2022/03/28 12:40:32;;;;;;;32.80;10.40;;;;;;;;;;5093068;28;20484;-71
2022/03/28 12:42:59;;;;;;;33.03;10.63;;;;;;;;;;5092962;28;20941;-72
2022/03/28 12:45:29;;;;;;;29.97;9.93;;;;;;;;;;5092973;28;20777;-71
2022/03/28 12:47:57;;;;;;;25.97;10.37;;;;;;;;;;5085892;28;20475;-71
2022/03/28 12:50:26;;;;;;;30.20;8.90;;;;;;;;;;5092948;28;20483;-71
2022/03/28 12:52:55;;;;;;;25.13;9.33;;;;;;;;;;5092852;28;20531;-72
2022/03/28 12:55:28;;;;;;;34.00;9.73;;;;;;;;;;5092646;28;20456;-71
2022/03/28 12:57:59;;;;;;;25.30;9.33;;;;;;;;;;5092651;28;20456;-71
2022/03/28 13:00:26;;;;;;;27.43;10.40;;;;;;;;;;5092945;28;20455;-71
2022/03/28 13:02:54;;;;;;;22.03;8.40;;;;;;;;;;5092656;28;20937;-71
2022/03/28 13:05:22;;;;;;;24.33;9.00;;;;;;;;;;5092485;28;20870;-71
2022/03/28 13:07:49;;;;;;;25.90;9.57;;;;;;;;;;5092647;28;20441;-72
2022/03/28 13:10:24;;;;;;;30.00;9.73;;;;;;;;;;5092415;28;20478;-71
2022/03/28 13:12:57;;;;;;;36.80;10.17;;;;;;;;;;5092929;28;20451;-72
2022/03/28 13:15:27;;;;;;;28.63;8.57;;;;;;;;;;5092855;28;20827;-72
2022/03/28 13:18:04;;;;;;;25.23;9.57;;;;;;;;;;5092763;28;20500;-71
2022/03/28 13:20:31;;;;;;;25.57;8.20;;;;;;;;;;5092369;28;20943;-72
2022/03/28 13:23:01;;;;;;;27.53;8.60;;;;;;;;;;5092395;28;20439;-72
2022/03/28 13:25:30;;;;;;;21.90;8.23;;;;;;;;;;5092563;28;20515;-71
2022/03/28 13:28:05;;;;;;;29.90;9.40;;;;;;;;;;5085650;28;20523;-71
2022/03/28 13:30:35;;;;;;;25.00;9.53;;;;;;;;;;5092458;28;20550;-71
2022/03/28 13:33:04;;;;;;;31.23;8.57;;;;;;;;;;5111764;28;20437;-71
2022/03/28 13:35:31;;;;;;;22.63;7.80;;;;;;;;;;5111954;28;20537;-71
2022/03/28 13:38:00;;;;;;;26.03;8.77;;;;;;;;;;5111467;28;20468;-71
2022/03/28 13:40:28;;;;;;;29.17;7.73;;;;;;;;;;5111573;28;20463;-71
2022/03/28 13:42:56;;;;;;;22.20;7.53;;;;;;;;;;5111594;28;21014;-72
2022/03/28 13:45:24;;;;;;;22.43;7.17;;;;;;;;;;5111429;28;20529;-71
2022/03/28 13:47:56;;;;;;;23.53;7.80;;;;;;;;;;5111400;28;20483;-71
2022/03/28 13:50:24;;;;;;;22.13;7.17;;;;;;;;;;5111967;28;20490;-71
2022/03/28 13:52:51;;;;;;;20.17;6.77;;;;;;;;;;5111580;28;20927;-72
2022/03/28 13:55:18;;;;;;;28.20;8.97;;;;;;;;;;5111684;28;20804;-71
2022/03/28 13:57:46;;;;;;;25.40;7.63;;;;;;;;;;5111548;28;20443;-71
2022/03/28 14:00:14;;;;;;;29.37;7.73;;;;;;;;;;5113929;28;20461;-71
2022/03/28 14:02:41;;;;;;;21.90;7.67;;;;;;;;;;5115536;28;20948;-71
2022/03/28 14:05:11;;;;;;;25.07;7.97;;;;;;;;;;5115535;28;20451;-70
2022/03/28 14:07:39;;;;;;;29.03;7.67;;;;;;;;;;5115405;28;20990;-71
2022/03/28 14:10:06;;;;;;;26.40;6.97;;;;;;;;;;5115562;28;20478;-71
2022/03/28 14:12:35;;;;;;;27.93;7.60;;;;;;;;;;5115365;28;20485;-71
2022/03/28 14:15:03;;;;;;;25.03;8.70;;;;;;;;;;5115249;28;20458;-71
2022/03/28 14:17:31;;;;;;;28.00;7.23;;;;;;;;;;5115445;28;20499;-71
2022/03/28 14:20:03;;;;;;;23.17;6.90;;;;;;;;;;5115591;28;20525;-71
2022/03/28 14:22:32;;;;;;;28.23;8.20;;;;;;;;;;5115126;28;20888;-71
2022/03/28 14:25:00;;;;;;;23.77;7.73;;;;;;;;;;5115186;28;20447;-71
2022/03/28 14:27:28;;;;;;;27.77;8.50;;;;;;;;;;5114872;28;20529;-71
2022/03/28 14:29:57;;;;;;;20.80;7.17;;;;;;;;;;5115022;28;20493;-71
2022/03/28 14:32:24;;;;;;;26.37;8.17;;;;;;;;;;5115080;28;20454;-71
2022/03/28 14:34:53;;;;;;;22.97;7.70;;;;;;;;;;5115101;28;20616;-71
2022/03/28 14:37:21;;;;;;;35.27;9.80;;;;;;;;;;5114447;28;20438;-70
2022/03/28 14:39:50;;;;;;;27.53;7.17;;;;;;;;;;5114665;28;20482;-71
2022/03/28 14:42:19;;;;;;;23.00;6.67;;;;;;;;;;5114889;28;20838;-71
2022/03/28 14:44:46;;;;;;;21.70;6.80;;;;;;;;;;5114929;28;20967;-71
2022/03/28 14:47:14;;;;;;;27.60;8.77;;;;;;;;;;5114347;28;20445;-70
2022/03/28 14:49:41;;;;;;;29.97;9.00;;;;;;;;;;5114752;28;20454;-71
2022/03/28 14:52:09;;;;;;;26.60;7.70;;;;;;;;;;5114699;28;20456;-71
2022/03/28 14:54:37;;;;;;;27.53;7.60;;;;;;;;;;5114796;28;20822;-71
2022/03/28 14:57:06;;;;;;;29.30;8.77;;;;;;;;;;5114553;28;20527;-71
2022/03/28 14:59:37;;;;;;;26.90;10.13;;;;;;;;;;5114490;28;20472;-71
2022/03/28 15:02:05;;;;;;;24.20;8.33;;;;;;;;;;5114839;28;20450;-72
2022/03/28 15:04:32;;;;;;;27.83;9.10;;;;;;;;;;5114386;28;20445;-71
2022/03/28 15:07:00;;;;;;;22.30;7.90;;;;;;;;;;5114572;28;20973;-72
2022/03/28 15:09:28;;;;;;;28.87;8.50;;;;;;;;;;5087738;28;20457;-71
2022/03/28 15:11:56;;;;;;;23.27;7.40;;;;;;;;;;5094817;28;20489;-71